createdAt,value
2022-08-10T00:00:51.349Z,101871.50
2022-08-10T00:05:53.484Z,101864.78
2022-08-10T00:10:56.942Z,101859.72
2022-08-10T00:15:58.638Z,101860.78
2022-08-10T00:21:00.290Z,101845.81
2022-08-10T00:26:02.465Z,101854.31
2022-08-10T00:31:04.028Z,101859.13
2022-08-10T00:36:05.932Z,101849.13
2022-08-10T00:41:07.538Z,101849.41
2022-08-10T00:46:09.113Z,101848.03
2022-08-10T00:51:11.256Z,101844.28
2022-08-10T00:57:05.117Z,101845.47
2022-08-10T01:02:10.774Z,101834.94
2022-08-10T01:06:58.649Z,101833.25
2022-08-10T01:12:40.927Z,101831.09
2022-08-10T01:17:50.935Z,101831.50
2022-08-10T01:23:14.587Z,101832.00
2022-08-10T01:28:56.473Z,101832.47
2022-08-10T01:34:05.183Z,101831.69
2022-08-10T01:39:08.242Z,101838.03
2022-08-10T01:44:13.908Z,101832.91
2022-08-10T01:49:20.037Z,101825.00
2022-08-10T01:54:25.604Z,101831.13
2022-08-10T01:59:34.909Z,101832.78
2022-08-10T02:04:39.844Z,101834.06
2022-08-10T02:09:48.028Z,101842.22
2022-08-10T02:14:56.908Z,101838.53
2022-08-10T02:20:02.203Z,101836.91
2022-08-10T02:25:05.239Z,101837.72
2022-08-10T02:30:08.271Z,101842.41
2022-08-10T02:35:22.270Z,101844.25
2022-08-10T02:45:12.914Z,101843.03
2022-08-10T02:45:52.582Z,101837.75
2022-08-10T02:51:05.267Z,101847.31
2022-08-10T02:56:11.675Z,101848.75
2022-08-10T03:01:17.866Z,101839.97
2022-08-10T03:06:23.501Z,101842.63
2022-08-10T03:12:35.394Z,101845.28
2022-08-10T03:16:51.841Z,101840.78
2022-08-10T03:21:55.563Z,101831.38
2022-08-10T03:26:57.821Z,101839.56
2022-08-10T03:32:02.083Z,101837.34
2022-08-10T03:37:03.942Z,101833.44
2022-08-10T03:42:09.146Z,101837.91
2022-08-10T03:47:16.187Z,101827.94
2022-08-10T03:52:19.375Z,101821.19
2022-08-10T03:57:21.919Z,101833.84
2022-08-10T04:02:41.520Z,101833.63
2022-08-10T04:07:46.136Z,101835.28
2022-08-10T04:12:47.681Z,101836.69
2022-08-10T04:18:03.573Z,101832.41
2022-08-10T04:23:12.219Z,101843.22
2022-08-10T04:28:14.565Z,101846.69
2022-08-10T04:33:19.972Z,101847.44
2022-08-10T04:38:24.702Z,101841.31
2022-08-10T04:43:26.462Z,101844.34
2022-08-10T04:48:42.813Z,101843.22
2022-08-10T04:54:03.793Z,101838.97
2022-08-10T04:59:09.459Z,101837.88
2022-08-10T05:04:36.308Z,101843.03
2022-08-10T05:09:32.519Z,101848.13
2022-08-10T05:14:34.268Z,101851.00
2022-08-10T05:20:03.133Z,101857.44
2022-08-10T05:24:57.513Z,101859.03
2022-08-10T05:30:02.607Z,101863.56
2022-08-10T05:35:05.457Z,101871.38
2022-08-10T05:40:08.156Z,101873.03
2022-08-10T05:45:20.846Z,101872.59
2022-08-10T05:50:27.071Z,101882.47
2022-08-10T05:55:30.761Z,101882.44
2022-08-10T06:00:41.843Z,101878.94
2022-08-10T06:05:47.723Z,101881.28
2022-08-10T06:12:21.892Z,101876.34
2022-08-10T06:16:15.988Z,101878.66
2022-08-10T06:21:19.152Z,101876.38
2022-08-10T06:26:21.837Z,101890.34
2022-08-10T06:31:26.076Z,101893.84
2022-08-10T06:36:33.965Z,101886.25
2022-08-10T06:42:14.644Z,101885.28
2022-08-10T06:47:07.502Z,101884.88
2022-08-10T06:52:18.092Z,101898.94
2022-08-10T06:57:26.449Z,101908.06
2022-08-10T07:02:41.360Z,101896.34
2022-08-10T07:07:45.635Z,101888.94
2022-08-10T07:12:50.023Z,101898.84
2022-08-10T07:17:53.074Z,101894.81
2022-08-10T07:23:27.285Z,101904.03
2022-08-10T07:28:19.034Z,101900.91
2022-08-10T07:33:22.949Z,101898.25
2022-08-10T07:38:28.817Z,101904.44
2022-08-10T07:43:35.430Z,101891.38
2022-08-10T07:48:43.874Z,101899.44
2022-08-10T07:53:51.209Z,101897.44
2022-08-10T07:59:07.135Z,101904.31
2022-08-10T08:04:12.613Z,101910.28
2022-08-10T08:09:14.666Z,101908.81
2022-08-10T08:14:16.911Z,101910.78
2022-08-10T08:19:28.555Z,101913.13
2022-08-10T08:24:40.488Z,101914.81
2022-08-10T08:29:45.385Z,101923.03
2022-08-10T08:34:49.233Z,101918.91
2022-08-10T08:39:51.110Z,101906.69
2022-08-10T08:45:11.484Z,101907.31
2022-08-10T08:50:31.345Z,101898.19
2022-08-10T08:56:04.735Z,101886.25
2022-08-10T09:01:13.139Z,101883.03
2022-08-10T09:06:41.950Z,101875.56
2022-08-10T09:11:58.727Z,101867.97
2022-08-10T09:17:12.211Z,101869.16
2022-08-10T09:22:25.440Z,101858.03
2022-08-10T09:27:35.463Z,101864.41
2022-08-10T09:36:13.628Z,101845.53
2022-08-10T09:38:22.593Z,101844.88
2022-08-10T09:43:50.056Z,101850.16
2022-08-10T09:49:06.508Z,101839.00
2022-08-10T09:54:46.502Z,101836.09
2022-08-10T10:00:12.558Z,101828.16
2022-08-10T10:05:25.190Z,101831.75
2022-08-10T10:10:47.894Z,101819.81
2022-08-10T10:16:28.013Z,101801.47
2022-08-10T10:22:03.867Z,101788.91
2022-08-10T10:27:17.685Z,101800.31
2022-08-10T10:32:36.541Z,101788.09
2022-08-10T10:38:02.471Z,101777.41
2022-08-10T10:43:13.383Z,101768.78
2022-08-10T10:48:29.388Z,101765.25
2022-08-10T10:53:39.374Z,101758.25
2022-08-10T10:58:49.764Z,101754.88
2022-08-10T11:04:06.348Z,101750.09
2022-08-10T11:10:07.902Z,101748.47
2022-08-10T11:14:48.052Z,101738.91
2022-08-10T11:20:14.505Z,101729.38
2022-08-10T11:25:18.931Z,101727.16
2022-08-10T11:30:44.602Z,101722.25
2022-08-10T11:36:03.749Z,101722.19
2022-08-10T11:42:09.256Z,101714.66
2022-08-10T11:47:19.027Z,101717.84
2022-08-10T11:52:40.799Z,101712.59
2022-08-10T11:57:53.788Z,101703.06
2022-08-10T12:02:59.882Z,101699.72
2022-08-10T12:10:06.684Z,101702.13
2022-08-10T12:14:10.749Z,101689.63
2022-08-10T12:19:20.594Z,101686.09
2022-08-10T12:24:44.329Z,101674.63
2022-08-10T12:30:07.263Z,101670.31
2022-08-10T12:35:26.383Z,101672.00
2022-08-10T12:40:38.029Z,101660.06
2022-08-10T12:45:48.362Z,101659.09
2022-08-10T12:50:57.913Z,101651.44
2022-08-10T12:56:00.781Z,101646.47
2022-08-10T13:01:19.753Z,101636.66
2022-08-10T13:06:23.148Z,101632.81
2022-08-10T13:12:35.786Z,101622.28
2022-08-10T13:16:51.889Z,101620.31
2022-08-10T13:21:56.287Z,101605.03
2022-08-10T13:27:26.011Z,101599.28
2022-08-10T13:32:27.816Z,101577.34
2022-08-10T13:37:33.028Z,101583.09
2022-08-10T13:42:37.389Z,101586.00
2022-08-10T13:47:49.495Z,101574.53
2022-08-10T13:52:54.540Z,101559.44
2022-08-10T13:57:59.676Z,101574.47
2022-08-10T14:03:08.196Z,101561.91
2022-08-10T14:08:13.531Z,101560.75
2022-08-10T14:13:18.272Z,101551.03
2022-08-10T14:18:20.171Z,101549.84
2022-08-10T14:23:21.949Z,101541.56
2022-08-10T14:28:32.788Z,101537.75
2022-08-10T14:33:36.173Z,101521.91
2022-08-10T14:38:42.807Z,101519.28
2022-08-10T14:43:54.187Z,101517.50
2022-08-10T14:48:58.485Z,101518.19
2022-08-10T14:54:03.306Z,101509.69
2022-08-10T14:59:09.356Z,101513.66
2022-08-10T15:04:13.643Z,101512.28
2022-08-10T15:09:19.570Z,101498.72
2022-08-10T15:14:43.071Z,101502.22
2022-08-10T15:20:04.270Z,101490.66
2022-08-10T15:25:18.715Z,101491.28
2022-08-10T15:30:27.029Z,101483.41
2022-08-10T15:35:34.225Z,101482.19
2022-08-10T15:40:51.276Z,101482.31
2022-08-10T15:45:59.008Z,101464.16
2022-08-10T15:51:10.288Z,101465.44
2022-08-10T15:56:28.347Z,101456.91
2022-08-10T16:02:14.618Z,101456.81
2022-08-10T16:07:12.348Z,101447.00
2022-08-10T16:12:29.740Z,101452.56
2022-08-10T16:17:54.422Z,101452.38
2022-08-10T16:23:00.661Z,101450.28
2022-08-10T16:28:07.759Z,101445.28
2022-08-10T16:33:12.820Z,101434.88
2022-08-10T16:38:16.659Z,101445.06
2022-08-10T16:43:23.810Z,101442.88
2022-08-10T16:48:49.161Z,101423.81
2022-08-10T16:53:53.711Z,101421.09
2022-08-10T16:58:57.349Z,101419.06
2022-08-10T17:04:09.977Z,101414.47
2022-08-10T17:09:18.894Z,101420.50
2022-08-10T17:14:29.084Z,101415.88
2022-08-10T17:19:37.043Z,101419.22
2022-08-10T17:24:45.294Z,101407.56
2022-08-10T17:29:58.826Z,101410.56
2022-08-10T17:35:10.713Z,101418.69
2022-08-10T17:40:18.869Z,101410.25
2022-08-10T17:45:46.230Z,101412.47
2022-08-10T17:50:51.155Z,101410.50
2022-08-10T17:55:58.410Z,101405.66
2022-08-10T18:01:41.500Z,101407.84
2022-08-10T18:06:25.303Z,101411.19
2022-08-10T18:11:33.553Z,101422.06
2022-08-10T18:16:35.762Z,101416.41
2022-08-10T18:21:47.709Z,101414.03
2022-08-10T18:26:52.442Z,101426.75
2022-08-10T18:32:02.662Z,101420.38
2022-08-10T18:37:09.336Z,101427.28
2022-08-10T18:42:43.227Z,101430.34
2022-08-10T18:47:59.567Z,101431.72
2022-08-10T18:53:09.159Z,101435.31
2022-08-10T18:58:42.942Z,101451.09
2022-08-10T19:04:30.885Z,101457.66
2022-08-10T19:09:54.318Z,101465.94
2022-08-10T19:15:27.819Z,101463.00
2022-08-10T19:20:41.083Z,101459.78
2022-08-10T19:26:36.452Z,101475.56
2022-08-10T19:31:24.206Z,101470.00
2022-08-10T19:37:03.130Z,101471.59
2022-08-10T19:42:18.505Z,101474.38
2022-08-10T19:47:36.213Z,101475.66
2022-08-10T19:52:52.424Z,101487.69
2022-08-10T19:58:02.866Z,101489.53
2022-08-10T20:03:11.898Z,101492.28
2022-08-10T20:08:24.053Z,101495.06
2022-08-10T20:13:55.154Z,101503.81
2022-08-10T20:19:06.475Z,101506.84
2022-08-10T20:24:12.652Z,101496.91
2022-08-10T20:29:57.604Z,101504.47
2022-08-10T20:34:48.119Z,101515.63
2022-08-10T20:40:25.778Z,101507.84
2022-08-10T20:45:51.841Z,101513.53
2022-08-10T20:51:00.366Z,101509.00
2022-08-10T20:56:17.305Z,101507.66
2022-08-10T21:02:06.544Z,101512.78
2022-08-10T21:07:44.124Z,101511.69
2022-08-10T21:13:13.690Z,101516.28
2022-08-10T21:18:36.270Z,101515.19
2022-08-10T21:23:50.383Z,101511.97
2022-08-10T21:29:21.874Z,101511.16
2022-08-10T21:35:03.805Z,101516.53
2022-08-10T21:40:37.605Z,101517.59
2022-08-10T21:46:00.933Z,101513.75
2022-08-10T21:51:14.697Z,101516.41
2022-08-10T21:56:21.122Z,101516.91
2022-08-10T22:01:39.744Z,101510.31
2022-08-10T22:06:52.129Z,101504.47
2022-08-10T22:11:57.917Z,101500.97
2022-08-10T22:17:01.934Z,101495.31
2022-08-10T22:22:27.150Z,101498.47
2022-08-10T22:27:47.274Z,101507.81
2022-08-10T22:33:27.033Z,101507.66
2022-08-10T22:38:50.394Z,101502.72
2022-08-10T22:43:58.163Z,101505.50
2022-08-10T22:49:00.169Z,101510.66
2022-08-10T22:54:10.447Z,101504.97
2022-08-10T22:59:12.096Z,101501.44
2022-08-10T23:04:28.435Z,101503.19
2022-08-10T23:09:38.575Z,101501.97
2022-08-10T23:15:00.195Z,101505.66
2022-08-10T23:20:10.119Z,101506.03
2022-08-10T23:25:15.978Z,101505.84
2022-08-10T23:30:19.109Z,101505.28
2022-08-10T23:36:29.692Z,101514.94
2022-08-10T23:40:47.458Z,101508.47
2022-08-10T23:45:54.428Z,101507.88
2022-08-10T23:51:02.208Z,101516.13
2022-08-10T23:56:12.947Z,101508.38
